Product Details

PALL Claris Series Filter Cartridges CLR 30-20, CLR5-40, CLR5-40-M3E, CLR1-9.875, CLR5-30-M3E

Brand Name Fimler
Place of Origin China
Model Number CLR5-30
Type Other
Certification Certification
After-sales Service Provided No overseas service provided
Warranty 3-6
Weight Please contact customer service
Dimension(L*W*H) Please contact customer service
Condition New
Product Type Cosmetic
Voltage Please contact customer service
Power(W) Please contact customer service

Product Features

Warm Tips: 

We can supply most of the manufacturers of filter accessories, complete model, the goods quickly, quality assurance.

 

Limited space, not one by one show, if demand, please contact, thank you!

 

Air filtration, liquid filtration, gas filtration, hydraulic oil filtration, petroleum filtration, 
dust filtration, coalescers, separators - we can all produce!
No matter which brand - we can produce!
No matter which model - we can produce!
You have needs - please contact us.




KLRJ 110855Z AUTO 15004KT 10SM CLR M05/M07 A3012 RMK AO2

KLRJ 110835Z AUTO 15003KT 10SM CLR M05/M07 A3012 RMK AO2

KLRJ 110815Z AUTO 00000KT 10SM CLR M05/M07 A3011 RMK AO2

KLRJ 110755Z AUTO 00000KT 10SM CLR M05/M06 A3012 RMK AO2

KLRJ 110735Z AUTO 00000KT 10SM CLR M05/M07 A3011 RMK AO2

KLRJ 110715Z AUTO 15003KT 10SM CLR M05/M07 A3010 RMK AO2

KLRJ 110655Z AUTO 15004KT 10SM CLR M05/M07 A3010 RMK AO2

KLRJ 110635Z AUTO 15003KT 10SM CLR M05/M07 A3011 RMK AO2

KLRJ 110615Z AUTO 15003KT 10SM CLR M04/M07 A3011 RMK AO2

KLRJ 110555Z AUTO 00000KT 10SM CLR M04/M06 A3012 RMK AO2

KLRJ 110535Z AUTO 00000KT 10SM CLR M04/M06 A3012 RMK AO2

KLRJ 110515Z AUTO 16005KT 10SM CLR M05/M07 A3012 RMK AO2

KLRJ 110455Z AUTO 00000KT 10SM CLR M04/M07 A3014 RMK AO2

KLRJ 110435Z AUTO 16004KT 10SM CLR M05/M07 A3013 RMK AO2

KLRJ 110415Z AUTO 15005KT 10SM CLR M04/M07 A3013 RMK AO2

KLRJ 110355Z AUTO 00000KT 10SM CLR M04/M07 A3013 RMK AO2

KLRJ 110335Z AUTO 16005KT 10SM CLR M04/M06 A3012 RMK AO2

KLRJ 110315Z AUTO 16004KT 10SM CLR M03/M07 A3012 RMK AO2

KLRJ 110255Z AUTO 14008KT 10SM CLR M03/M07 A3011 RMK AO2

KLRJ 110235Z AUTO 14008KT 10SM CLR M02/M07 A3012 RMK AO2

KLRJ 110215Z AUTO 14007KT 10SM CLR M03/M07 A3013 RMK AO2

KLRJ 110155Z AUTO 15006KT 10SM CLR M03/M07 A3013 RMK AO2

KLRJ 110135Z AUTO 15004KT 10SM CLR M03/M07 A3013 RMK AO2

KLRJ 110115Z AUTO 14003KT 10SM CLR M03/M06 A3013 RMK AO2

KLRJ 110055Z AUTO 14005KT 10SM CLR M02/M06 A3013 RMK AO2

KLRJ 110035Z AUTO 14005KT 10SM CLR M02/M06 A3013 RMK AO2

KLRJ 110015Z AUTO 14004KT 10SM CLR M02/M06 A3014 RMK AO2

KLRJ 102355Z AUTO 00000KT 10SM CLR M01/M06 A3014 RMK AO2

KLRJ 102335Z AUTO 16004KT 10SM CLR M01/M07 A3014 RMK AO2

KLRJ 102315Z AUTO 18006KT 10SM CLR 00/M06 A3014 RMK AO2

KLRJ 102255Z AUTO 18010KT 10SM CLR 02/M07 A3013 RMK AO2

KLRJ 102235Z AUTO 18008KT 10SM CLR 02/M07 A3014 RMK AO2

KLRJ 102215Z AUTO 17010KT 10SM CLR 03/M07 A3013 RMK AO2

KLRJ 102155Z AUTO 16011G16KT 10SM CLR 03/M07 A3013 RMK AO2

KLRJ 102135Z AUTO 16014KT 10SM CLR 03/M07 A3013 RMK AO2

KLRJ 102115Z AUTO 15013KT 10SM CLR 02/M07 A3013 RMK AO2

CLR10-30-M3E

CLR10-30-M3V

CLR10-40

CLR10-40-H21

CLR10-40-M8S

CLR10-9.75

CLR10-9.875

CLR1-10

CLR1-10U

CLR1-20

CLR1-30

CLR1-30-M8S

CLR1-40

CLR1-40-H21

CLR1-40-M8S

CLR1-9.875

CLR20-20

CLR20-30

CLR20-40

CLR20-40-M8S

CLR20-9.75

CLR25-9.875-H21839

CLR30-19.5

CLR30-40

CLR3-10

CLR3-20

CLR3-20-M3E 

CLR50-10

CLR50-30

CLR50-30-M3E

CLR50-30-M3V

CLR50-9.75

CLR50-9.875

CLR50-9.875-H21

CLR5-10

CLR5-19.5

CLR5-20

CLR5-20

CLR5-20-M8S

CLR5-29.5

CLR5-30

CLR5-30-H21

CLR5-30-H21

CLR5-30-M3E

KA3J100P1 DFA4201A010 OS100F07 66468

5301994 FC5570 OS100T06 SGLFPF6402VMM68

AB1DFL7PH4 IDO10PFA34300 VMFRFB10096788RET ABFDA003EU------

AB1DJL7PH4 PUY1UY400J VMFRFB10096788RWK W04848

AB1FM7PH4 RGN2FN100 AL8NS KSADARA_PJT_1

KA4DFLP6 XLD1010UFM3BLK490 MCY2230PFRPH4 KSADARA_PJT_2

KGASKETGC E604Y100 F003AW20ACE1PK KSADARA_PJT_3

KORINGGC AB2F0023EH1 HFU640UY045H13 KACSKIT

MCY4463V002PVH4 UPK510S450JU HFU640UY1000H13 KA1EKVP1S

PFT230USM7 WFN04510UVM3300 HFU640UY100H13 KA3EKVP1S

RM2F010H21 DFA2NP124M HFU660GF400H13 PIP213LOSP1

AB2NFZ7PH4 UPKTPP-50B LSS2F1H 5301642

7007257 MCY4463FTEJ T11066033 KFBHOUSINGAR1R

KA3PFRP1 DFA1A010FL4N2SS KPCC61-DONGFENG2 KFBHOUSINGST1R

RM3F050H21 MR1F00125EH1K3 4302 KFBHOUSINGST3R

AB2DFL7PH4 DFA2NAEYSW84 4563 C14061S100

RM2F003H21 DFA6402NAEY 4650 HC0653FAG39Z

RM2F005H21 RM1F002H21NPL 4810 HRM02XR4ZCP

7005269 AB2Y0053H 7210 KPFC61920Z200LINV2

6074270 C20PCB5 12099 12094

KFCDKTUHVHSG DFA6402FTE 60336 12095

HC3300FHD30M DFA6402NIEY 61652 4814

T11078032 PA00440D2154 66475 8084

T11079032 PE0107820HW83 OD030C33 ABGF500-03B1

T11080032 KPCC39XS ODM02C34 KR14001

UE319AN20Z NT8UEDFP1A OS030C70 DFA6402HR

HC3310FGT20Z AB1UECV7PH4 4685 DDF2UG001EFL64

CLR3030M3E 18-5001 WKF0225 AB09FD3EH1

CLR3040M3E 18-5010 WKP0225 AB1NB3EH1

CLR5030M3E 18-5032 WKP4513 MDY2230FTEJ

CLR530M3E MBS1002P09H2 4525 LDFGN1GPQL164E71K7

HC2216FKS4H MBS1002PDH2 LW31320 ACS1092EX

HC3310FGN40Z MBS1002PEH2 LW32204 AB2NB7PH4

ME3310FPN30H MBS1002PFH2 LW32502 619-31E

ME3310FPS30H 18-5092 LW33701 KBPTUBING1

NNG025100 5703740 LPNXG-12.75 KBPTUBING2

R2F070 PFT02530USM7 69444421 AB3NFZ7PH4

XLDM102UNF PFT1030US PFT02975UEM3 MCY4463DFLPH4

HC2237FDP13H 7007256 ABD1UFC3EH1HV2 ACS0797AA

HC8304FKN39H AB3J0127H4 UPK510UY200JUSB12 ACS0865AA

HC9800FKS4H AB3GB7WH4 PHD22UFREH232N KVGOFCC_HMI

HC8304FKS39H KFBHSGA20X3R PHD22UNIEJN KVGOFCC_MCB_SPARE

HC8304FKT39H B19577 AB2UY4003J R3F100

HC9600FKS16H 7005267 DFA4201A030 UE619AS20Z

UE619AT20Z KFBHSGS20X13R PFT04510UN HH8304F40UBPT

HC4900FKS10H 88015200 AB1PC0023H1 HC2226FKN4H50

HC9600FKN16H 6124192 GLF6101SM8 HC9800FKZ8Z

HC9600FKN8H HC2237FDP6H MCY4463FRESH23 12035-028

HC2206FKS3H HC2295FKP36H MCY4463J100J KSMCON643320

HC2296FKP18H ABGN1FN0507H13 LDDN09UHSQ164E51K6 DFA1FTESNP64M

HC8300FWT39Z F1303332 PHD12UG001EH11B DFA1NIEYNP64M

HC9400FKN26H PCC501MEM5 AB1F0013EH1 KSILPF1101VMM12

ME3310FPR40H132 HC2286FKS12H50 LDFTR1UCFD13E1K7 IGCC_PROJECT_HPHT

UE619AN20Z V12W500 AB1J0127H4 18-5045

UE619AP40Z SMCON64-33 AB1Y00225J 18-5088

UR319CF3220ZG9YR85 V08R500 AB1Y0053J 619-31D

V12R500 CC20LGA7H13 PUY1UY300J AB2FR7EH1

V12R500-56 FLHF100009M3F300 KAEUHF1S250FB ABD2UFT3EH1K13

BSPCY6302 HFU620UY300H1 AB2NL7PH4 88002900

BSPCY622030P EPK310S200J DFA4201NAEY KFCJUNCTIONBOX

6004923 ABD2UFGD3EH1C00001 FLF6001NAEY KFCPOCIGCCVENTURI

AB3ND3EH4 AB3FR3EH1 S26.4.09 D1160979182409

DFPT0230EV PHD12UG005EH11 AHP-3013D 4487

DFPT330EV ABFG1UCFTL3EH1K3 KFCDSOMAIN 4611

MDY1003J012MJ AA4463F1 HH4710G24KNTBP 4820

PUY3UY100J GC00273F168H HC9601FDP16H 7242

WFN04530UE300 E70Q-325-6.6 UE319AP13Z 4522

AB1UY2003J E70Q_85X73X2 HC8400FKS8H 4524

PHD11UNAEH11N K9611993673 ME3310FPN40H 4317

PHD11UNDEH11N AB3PFR7PVH15 4336 4320

VFTR10020M3FPW300 KA2V002PV1 4656 6194192

DFA1FRENP64MR 20050-043 12098 XLD4510UFM3BLK490

PHD11J045FJN FFS04S 61638 AB1J0063H1

PHD22UJ045JN 88501041 OD030C34 AB2UY3003J

AB1F00453EH1 DXXJ30M04730 OD300C34 WFPK0210UEM3300

AB1F0103EH1 DXXJ40M04730 4472 LDFVT1GPQL12E71K3

HFU609EC100H1 HC8314FKN39H 4520 ABD2UFGD3EH1SUBOX

HFU620EC100H1 RC861CZ090HYM 8082 ABF2UCFT3EH1

LDFN09F004512E51 UE319AT13Z AP-4501 AKIT----------03

UPK510F100H1 UR319CC2413ZG9YR85 R2PJ047 EP1102001CG-B--A

UPK510S200JU HC7500SKP8H PTF045LD0A-SAMP LDFGN1GP15L1C00002

VFHA20010M3E300 HC9100FKS4H KAP111-2030PK LDFGN1GPQL16E51K7

XLD1510UFM3BLK490 HC9650FKS13H PUY1UY100J LDFN05GPQ09E71K7

XLD310UFM3BLK490 HC9650FKS26H DP3000HP4H040 FLHF100010M3F300

DFA4201J025 HC8900FKS16H MBS1001M020J GLP2INPVMM4

R2F010 700190-000281 MBS1001M100J GLP2NH3PVMM4

LCBN01FTESW22SS HFU660UY100J LDFN09F01012E51 GLP2SIPVMM4

VP1034222 HC3310FGP30Z TRX011G26JD CMC3686

UPK510S1200JU HC3310FGS30Z ABF2GPK3EH1 CMPD1030UM3E300

VFSH00310M3S300 AB1NA3EH1 MBS1002M020H2 KA1NTP3

ABD1UPW3EH1 AB1NB3WPH KSKDPF1101C3BW16P HC9404FKP16H

KA01AK-1G316SJ 321-041-8000 QG0149 HC8300FKN16H

VFSH01010M3S790 325-041-8000 MH2P036P5L01CZ-- KPG322558

MCY1001FREJ CLR540M3E MH2P036P6L01CZ-- 619-93X

GLFPF6101VXM4AM HC9801FDT4H SLP-1053 619-93Y

PCY23GN16H13 UE319AZ20Z SIP-3023 619-93Z

VFHA20010M3FBLK490 XLDM201UNF 8004022 619-94A

DFA1A015FL4NC00001 UE219AN13Z R3F010 629-94B

DFA1Y003FL4NC00003 HC9601FDT16H CLR120 KA2DFLP1G

DFA1Y005FL4NC00004 10271484 MBS1002S200H13 KA2EKVP1G

DFA2A015F64 UE219AT13Z LCS4H2HH1 NT8EKVP1G

LDDN09HSVH164E51K7 UE219AZ13Z HFU660GF020H13 AB3NF7PH4

LDFGN1GP15L1S00001 UE319AN08Z HC9600FKN13H B06104

LDFN09GP1512X00001 UE619AN40Z HC8900FKS13H KA2DFLP1

SGLFPF6101VM68M UE619AT40Z HC2296FKP36H KA2NFZP1

VCSC10004M3F300 1119 UE319AP20Z KA2PFRP1

LDFGT1UCFTL12E2K3 4020 M01LS1G16JC SCS92SP73S

PKF1FF13E0 4543 NXT510U SCS94HG73S

LDFN09UCFT12E51K3 4562 HC2425FKS34 SLK7002J025P

CMC2803 4602 UE619AP20Z KLSGCC_P1288_3

R1F003 4683 BTNT50016 KLSGCC_P1341_1

ABD1UNM3EH1 4717 6764192 KLSGCC_P1341_2

ABD2UNM3EH1 4804 UPK510UY300JUSB12 PASS-P1288-3/1

DDF1UNMENP44N 7212 UPK510UY100JUSB12 PASS-P1288-3/2

DFA1SRPESW44 60173 R2F400 KLSLGLS_P1438

MCY4463FREJ 66477 GLFF4241VMM4 KPHA-P1438-LGLS

PHD22ANDEH232 66608 CNF1004USG4 PASS-P1438

PHD44UG001EH11 68121 GLFPF3101VMM4 HC8500FKP8H

AB1FR7EHF 6054500 ABF1UFC3EH1 HC9021FDP4H

ABFG1GP15L3EH1K7 AP-4306 PFN1F13H1 RC778NZ090H

UPK310S1200J AP-4794 AB2Y00325J UE319AT20Z

UPK510FGJU OD100C33 ADA52910Y2 KMS3PC-2U-FMK

GDF6406E5 2220 ADA52912RVY1 4282

MCD9116UFTEJ 4238 ADA52922Y1 4287

SGLFPF6101SM6S 4273 ADA52931RVY2 PFTM1740AE

PHD44ANMEH232 4283 HC9800FKN4H UPK510S100JUSB12

PHYGFS104MB 4285 ACS0664BA DFA1FDESNP64M

PHYGFS64MB 4402 KA02EKVP2S LDFGN1UCFTL16E51K7

PUY3UY300J 4480 OS030T06 LDFN09F004512E51K3

TC036UH096 4545 MCY4463PFRPH4 QE0630

TC076UH096 4624 7007817 5EN48813U001Z202GS

QF01067 4690 18-5012 5HD4886114DU001ZP

QE13508 4785 18-5104 PIP480LOSP6

QA08231 4803 NP6PDH41 KPTSDEL

QA08232 12077 HC2286FKP30H50 KA02PFRP3

MCY4440PFRPH4 12675 HH4740G24KPUBP MCY4440V002PVJ

AB1U010Z7PH4 15403 F1196598 SCG95HU11E

SLK7001PFRP 51147 F1303593 SLK7002PFRP

AB2GB28WH4 60177 HC2296FKN14H50 EEA14A138A130

PFT0230USM7 66539 HC2296FKT14H50 EEA14A144A14

CLR530 87265 HC9601FDP8H AB1J1007PH4

AB1FT3EH1 88216 5053 18-5093

R2F030 15950-017 4235 KFCNAMEPLATE

84504300 AP-4302 4280 NXA202U

RLS4FPS200 AP-4791 4489 HS70595

KFCRREHOUSING FTKECV 66278 AB1J0457J

LCS2H1AH LW31210 AP-4219 60179

NXAM702UNF185 LW31330 AP-4559 60307

RM298F070H21 LW32101 OD010C34 FLHF20020M3F300

LSF1 LW32103 P4PH047 EPK510S050J

ELD96LYL LW32104 4464 FPT1034FLELB14FL

NEO96 LW32201 TOP-LCODF ABD1AND3EH1

NLF2E LW32302 XLD4010UEM6 AJOKE0088-------

TNA1 LW32401 DFA2FRESNP64R DDF1AN01EFL44

TNA2E LW32402 PHF11GFS44MWLTA 7007773

AEF1E LW32501 LDFN09UCFD12E51K3 KFILTERING-DYMOS2

ELD96LYLS LW32601 AB2PC0013J KSLKGASKET2

PF30SG LW32701 LDFN03UFD7E2 KVENTGC4440

HC8300FKP8H LW33403 SREPDMB126000L EEA14A138A38

HC6400FDP26H LW33502 MCY4463PFRWH4 EEA14A144A38

HC8904FKN16H LW33503 DXXJ07M04730 FS134X05

HC9100FKN8H LW33601 UE219AS13Z OS001T26

HC9600FKP16H MSTG25KIT UE319AN20H 7005270

KPFC400WPRINTE MSTGXT25Q16 HC9601FDN16Z FA71RPFWH4

PCM400UEEN MSTGXT25S16 HC2296FKS18H50 88001700

HC2233FKN13H OA001C12 HH8304F24UBB HC9601FDP4H

HC2216FKN4H OA030C12 HH8304F40XB2T HC9801FDP4H

ME3310FPT30H OA050C12 KF40RF1-D15 HC8904FKS26H

XLDM202UNF OARES220 HC2296FKN36H50 DFA4201FXE

XLDM402UNF OD003C34 UE219AN04Z AB3FT7EJ

HC8304FKP39H ODM02C35 UE319AP08Z PFT10020UE

HCA082EOS8Z OS030T01 AN814-8 ACS0281GA

RC778NZ091Z PAL-A653 HC9020FKS4H K587F-B3AL

UE319AP40Z PAL-C151 HC9601FDN13H K588F-B3AL

UT319F40++40ZGNBBB PAL-C166 KPCC91-DOOSAN K608031

4455 PAL-C176 4541 K8074-001

66234 PAL-C184 ODGHPC34 KAC161113

AB1FR3EH1 PAL-CAXXBIOM2 KA01AK-1GD25ARH1 KAC6236

RM3F005H21 PAL-CAXXXROM2 ABD1UFN3EH1HV2 KAN6235-1A

UPK510S450JUSB12 PAL-PCBS38024 UPK510ECH1 KE3031B-H08

EPK510PP005J SC050B010 UPK510R100H1 KHP16DHL14-3MB

AB1F0023EH1 SC050PDD1 DFA4201J006 KHP16DHL8-3MB

AB1F0023EH1K3 A01AK1G716H4C FLHF2001975M3F300 KHP16DNL14-3MB

R1F030 UPK310F010H1 RGN1FN050 KHP20L4-3MV

R1F050 VFSH00310DOEE300 UPKTC-1GU24H-KC KHP6236L8-3M

R1F200 PHD44ANMEH23 UPKTC-1GU24J-KC KHP74L4-3MB

R1F400 AB1UY0453J UPKTC-1GU32H-KC KMSE23007

PFT04510UE ABFG1GP15L3EH1 UPKTV-1GU24J-KC AB3FF7WH4

PFT08975UEM3 LDFGN1GP15L1C00001 UPKTV-1GU32H-KC NXT3195UH21

AB1A0103J LDFGN1GPQL16E8 UPKTV-1GU32J-KC D115831934J95S

AB1A0503J24 LDFGN1UCFTL16E8 A01AK1G816HC D115831966J95S

AB1UY5003J ABD1UFR3EH1HV2 LDFGN1GPKL164E51K7 DRYAIRFLOW

DFA1NIEYSW44 JP010015626 LDFGN1UCFTL12E51K7 KPFC8304-16Z50KMC4

DFA1Y002FL4NC00002 7006697 DFA1ANMENP64M XT070FDS0110

DFA4201A10024 MCY1110PFRPH4 MRD2ANM3EH1 66554

GLFN1100VMF4 MSTG25E3 ABF2UFR3EH1 AB2FX3EH1

LDFGN1GPDL12E51K7 CFF91HEDDL KPMEG-MF193N100 AB2J1003H4


We offer an extensive cross for the following brands



ACDelco

Ag Chem Group

Ag One

Aiag

Air Maze

Aircraft Porous Media

Airefiner

Airfil Oy

Alamo Filter

Alco Filter Ltd.

Allied Signal

Allis Chalmers

Allison Transmission

Amada

Ambac

American Augers

American Filtration

American Meter

Aqua Pure

Argo

Army-Navy

Arrow Mfg.

ASM

Baldwin

Behringer

Bendix

Big A

Bijur

Blac

Blount

Boll & Kirsch

BOM

BOMAG

Bosch

BOY

Bucyrus Erie

Can-Flo

Carquest

Case

Caterpillar

Champ

CIMCO

CimTek

Clark

Commercial

Conair

Coopers

Crosland

Crosley

Cross

Cuno

Curtis

Cyclone

Delaware Mantou

Deluxe

Demag

Denison

Dennis Eagle

Diagnetics

Diamond

Ditch Witch

DMIC

Dollinger

DOMS

Donaldson

Dresser Rand

Dynapac

Ebbco

Endustra

EPE

Euclid Hitachi

F.B.O.

Facet

Farr

Fairey Arlon

Falk

Fife

Filt

Filter Mart

Filterdyne

Filterite

Filters

Filtersoft

Filtrec

Filtroil

Finite

Finn

Fleetguard

Flow Ezy

Fluitek

Flux Filter

Ford

FPC

FRAM

FUJI

Gardner Denver

General Electric

General Filter

General Motors

GMC

Gradall

Grainger

Gresen

Grove

H.D.A.

Hagie

Harley Davidson

Hastings

Hayward

Heil

Hilco

Hilliard

Hitachi

Husky

Hycoa

Hycon

Hydac

Hydra-Mac

Hydra Screw

Hydreco

Hydrovane

Hy-Dynamics

Hypro

IHC

Indufil

Ingersol Rand

International Harvester

Internormen

JLG

John Deere

Joy

Kamui

Kanagawa Kikikogyo

Karuss Maffei

Kaydon

Kobelco

Koehler

Koehring

Komatsu

Komori

Knecht

Kralinator

Labrie

Laeis Bucher

Lenz

Leroi

Leybold

Lha

Liebherr

Linkbelt

Lorain

Luberfiner

Lucas

Magerle

Mahle

Mann

Marion

Marvel

Massey Ferguson

Masuda

Mazak

McMaster Carr

Milacron

Modina

Moog

Morbark

Motorcraft

MP Filtri

MTS Systems

Muncie

Mycom

NAPA

National Filters

Nelson

New Holland

Nippon

Norco

Nordson

Norman

Nugent

Nuovo

Nustar

O&K

Oil Filtration Systems

Okuma

OMT

Orion

Oshkosh

Owatonna

P&H Harnischfeger

Palatek

Palfinger

Pall

Pall Aeropower

Parker

Peco

Peerless

Perry

PMI

Porous Media

Prentice

Prince

PTI/Textron

Purolator

Putzmeister

Quality Filtration

Quincy

Ready To Power

Reed Drill

Refilco

REP

Rexnord

Rexroth

Rimpull

Rolls Royce

Rosco

Rosedale

Royal Filter

SAE Auto ID

Schmeck Pegasus

Schroeder

Schwing

Seebach

Separation Tech

Servolife

Servtek

Showa

SMC

Sofima

Stauff

Steiger

Strainrite

Sullair

Sumitomo

Sunstrand

Taisei Kogyo

TecFil

Timberjack

Torit

Toro

Toshiba

Towmotor

Trak

Triboguard

UCC

UFI

Unitech

United Eng. Life

Universal

V Engineering

Van Dorn Demag

Varco Drilling

Velcon

Vermeer

Versatile

Vickers

Vokes

Volvo

Wassenberg

Waterman

Western

Westinghouse

Winslow

WIX

Woodgate

Yamashin

Zinga





Our filtration equipment is used in a wide range of industries:

Advanced production process:



Contact us

john

Fimler Filter

WeChat: +8613632692595

SKype:+8613632692595

whatsapp:+8613632692595

QQ:4798742



You May Like

Find Similar Products By Category

You May Like

View More
Chat Now Contact Now